Řízení letového provozu České republiky
Letiste: LKPD Aktualizace: 22.07.2019 13:00:30  UTC
 METAR LKPD 22.07. 13:00 ...
METAR LKPD 221300Z 30008KT 250V350 CAVOK 28/10 Q1022 NOSIG RMK BLU BLU=
 TAF LKPD 22.07. 11:00 ...
TAF LKPD 221100Z 2212/2312 28008KT CAVOK=